YKEB weather

Kellerberrin Airport
Western Australia, Australia

Public forecast

Using degrees Celsius for public forecast. Weather courtesy of forecast.io.

METAR (pilot weather report)

Closest report is RAAF Base Pearce, 87.8 nm (162.6 km) W. Retrieved 2019/04/23 17:30 UTC (0 seconds ago):

YPEA 231730Z AUTO 28003KT 9999 // NCD 11/08 Q1025

TAF (pilot weather forecast)

Closest forecast is RAAF Base Pearce, 87.8 nm (162.6 km) W. Retrieved 2019/04/23 12:03 UTC (5 hours ago):

TAF YPEA 231055Z 2312/2406 17005KT 9999 FU NSC FM231500 11008KT 9999 FU NSC FM240400 09010KT 9999 FU NSC